Terminal Aerodrome Forecast
Issued by NWS

Home | Current Version | Previous Version | Text Only | Print | Product List | Glossary On
Versions: 1 2 3 4 5 6 7 8 9 10 11 12 13 14 15 16
840
FTAK31 PAJN 200523
TAFAJN
TAF
PAJN 200523Z 2006/2106 00000KT P6SM FEW070
     FM202000 24007KT P6SM SKC
     FM210000 VRB03KT P6SM SKC=

USA.gov is the U.S. government's official web portal to all federal, state and local government web resources and services.